createdAt,value
2018-03-04T00:00:58.906Z,42.47
2018-03-04T00:03:32.537Z,44.50
2018-03-04T00:06:06.173Z,42.60
2018-03-04T00:08:39.697Z,37.27
2018-03-04T00:11:13.310Z,30.07
2018-03-04T00:13:47.107Z,37.83
2018-03-04T00:16:21.131Z,41.17
2018-03-04T00:18:54.690Z,44.00
2018-03-04T00:21:28.423Z,45.23
2018-03-04T00:24:02.549Z,41.77
2018-03-04T00:26:36.182Z,46.10
2018-03-04T00:29:09.937Z,38.23
2018-03-04T00:31:43.588Z,42.03
2018-03-04T00:34:17.241Z,46.20
2018-03-04T00:36:50.993Z,44.20
2018-03-04T00:39:24.572Z,37.60
2018-03-04T00:41:58.206Z,43.50
2018-03-04T00:44:31.929Z,42.53
2018-03-04T00:47:05.611Z,44.87
2018-03-04T00:49:39.353Z,40.90
2018-03-04T00:52:13.010Z,46.10
2018-03-04T00:54:46.666Z,47.53
2018-03-04T00:57:20.515Z,44.63
2018-03-04T00:59:54.274Z,47.63
2018-03-04T01:02:28.119Z,48.20
2018-03-04T01:05:01.792Z,41.37
2018-03-04T01:07:35.350Z,44.37
2018-03-04T01:10:08.808Z,44.03
2018-03-04T01:12:42.523Z,46.53
2018-03-04T01:15:16.204Z,46.87
2018-03-04T01:17:49.842Z,39.70
2018-03-04T01:20:23.535Z,44.37
2018-03-04T01:22:57.139Z,48.27
2018-03-04T01:25:30.850Z,35.27
2018-03-04T01:28:04.424Z,48.53
2018-03-04T01:30:38.249Z,40.93
2018-03-04T01:33:11.882Z,44.20
2018-03-04T01:35:45.446Z,44.47
2018-03-04T01:38:19.173Z,45.33
2018-03-04T01:40:52.777Z,46.40
2018-03-04T01:43:26.566Z,47.13
2018-03-04T01:46:00.173Z,39.17
2018-03-04T01:48:33.824Z,43.13
2018-03-04T01:51:07.523Z,43.27
2018-03-04T01:53:41.232Z,50.03
2018-03-04T01:56:15.044Z,49.43
2018-03-04T01:58:48.770Z,50.30
2018-03-04T02:01:22.584Z,47.43
2018-03-04T02:03:56.335Z,49.40
2018-03-04T02:06:30.066Z,47.07
2018-03-04T02:09:03.922Z,47.23
2018-03-04T02:11:37.695Z,47.50
2018-03-04T02:14:11.398Z,48.67
2018-03-04T02:16:45.069Z,48.27
2018-03-04T02:19:18.666Z,47.33
2018-03-04T02:21:52.231Z,46.50
2018-03-04T02:24:25.915Z,45.92
2018-03-04T02:27:05.264Z,44.73
2018-03-04T02:29:38.896Z,47.87
2018-03-04T02:32:12.544Z,42.33
2018-03-04T02:34:46.104Z,38.77
2018-03-04T02:37:19.891Z,46.70
2018-03-04T02:39:53.432Z,42.33
2018-03-04T02:42:27.043Z,47.87
2018-03-04T02:45:08.979Z,42.87
2018-03-04T02:47:42.535Z,47.27
2018-03-04T02:50:16.210Z,35.27
2018-03-04T02:52:49.816Z,46.20
2018-03-04T02:55:23.524Z,41.43
2018-03-04T02:57:57.077Z,48.47
2018-03-04T03:00:30.759Z,49.87
2018-03-04T03:03:04.371Z,48.53
2018-03-04T03:05:37.921Z,46.33
2018-03-04T03:08:11.572Z,46.53
2018-03-04T03:10:45.304Z,46.40
2018-03-04T03:13:18.991Z,49.47
2018-03-04T03:15:52.651Z,43.00
2018-03-04T03:18:26.176Z,47.67
2018-03-04T03:20:59.919Z,42.07
2018-03-04T03:23:33.554Z,48.13
2018-03-04T03:26:07.296Z,49.07
2018-03-04T03:28:40.864Z,49.87
2018-03-04T03:31:14.502Z,47.47
2018-03-04T03:33:48.176Z,46.27
2018-03-04T03:36:21.898Z,40.97
2018-03-04T03:38:55.484Z,37.00
2018-03-04T03:41:29.209Z,44.37
2018-03-04T03:44:02.782Z,46.67
2018-03-04T03:46:36.591Z,45.47
2018-03-04T03:49:10.410Z,45.00
2018-03-04T03:51:44.035Z,43.63
2018-03-04T03:54:17.612Z,45.07
2018-03-04T03:56:51.162Z,46.27
2018-03-04T03:59:24.824Z,38.70
2018-03-04T04:01:58.332Z,43.20
2018-03-04T04:04:32.088Z,40.20
2018-03-04T04:07:05.742Z,42.20
2018-03-04T04:09:39.410Z,40.53
2018-03-04T04:12:12.969Z,33.80
2018-03-04T04:14:46.802Z,42.50
2018-03-04T04:17:20.466Z,45.70
2018-03-04T04:19:54.066Z,46.67
2018-03-04T04:22:27.874Z,45.47
2018-03-04T04:25:01.602Z,37.40
2018-03-04T04:27:35.413Z,41.93
2018-03-04T04:30:09.142Z,47.17
2018-03-04T04:32:42.846Z,44.13
2018-03-04T04:35:16.412Z,30.73
2018-03-04T04:37:50.076Z,45.07
2018-03-04T04:40:23.683Z,45.97
2018-03-04T04:42:57.563Z,43.27
2018-03-04T04:45:31.360Z,44.47
2018-03-04T04:48:05.038Z,46.57
2018-03-04T04:50:38.686Z,43.37
2018-03-04T04:53:12.194Z,43.60
2018-03-04T04:55:45.927Z,44.87
2018-03-04T04:58:19.657Z,45.23
2018-03-04T05:00:53.341Z,46.77
2018-03-04T05:03:27.066Z,28.13
2018-03-04T05:06:00.850Z,31.57
2018-03-04T05:08:34.440Z,44.53
2018-03-04T05:11:08.237Z,43.27
2018-03-04T05:13:41.850Z,42.33
2018-03-04T05:16:15.680Z,43.03
2018-03-04T05:18:49.212Z,46.10
2018-03-04T05:21:22.896Z,33.10
2018-03-04T05:23:56.474Z,45.70
2018-03-04T05:26:30.174Z,44.60
2018-03-04T05:29:03.844Z,44.90
2018-03-04T05:31:37.501Z,43.60
2018-03-04T05:34:11.045Z,33.67
2018-03-04T05:36:44.866Z,43.57
2018-03-04T05:39:18.676Z,43.23
2018-03-04T05:41:52.367Z,37.80
2018-03-04T05:44:26.025Z,38.37
2018-03-04T05:46:59.658Z,43.50
2018-03-04T05:49:33.413Z,40.27
2018-03-04T05:52:07.135Z,43.23
2018-03-04T05:54:40.869Z,41.33
2018-03-04T05:57:14.513Z,45.13
2018-03-04T05:59:49.154Z,43.03
2018-03-04T06:02:22.801Z,45.03
2018-03-04T06:04:56.473Z,37.03
2018-03-04T06:07:30.175Z,42.43
2018-03-04T06:10:04.106Z,42.77
2018-03-04T06:12:37.772Z,40.60
2018-03-04T06:15:11.328Z,39.73
2018-03-04T06:17:44.842Z,43.20
2018-03-04T06:20:18.566Z,44.70
2018-03-04T06:22:52.320Z,44.10
2018-03-04T06:25:25.965Z,45.00
2018-03-04T06:27:59.667Z,36.73
2018-03-04T06:30:33.477Z,44.50
2018-03-04T06:33:07.102Z,47.43
2018-03-04T06:35:40.650Z,46.47
2018-03-04T06:38:14.252Z,40.23
2018-03-04T06:40:47.978Z,45.30
2018-03-04T06:43:21.521Z,44.97
2018-03-04T06:48:54.470Z,40.73
2018-03-04T06:51:28.234Z,40.70
2018-03-04T06:54:02.009Z,45.90
2018-03-04T06:56:35.781Z,37.30
2018-03-04T06:59:09.472Z,39.00
2018-03-04T07:01:43.092Z,42.77
2018-03-04T07:04:16.649Z,44.07
2018-03-04T07:06:50.396Z,42.37
2018-03-04T07:09:24.005Z,41.83
2018-03-04T07:11:57.768Z,39.83
2018-03-04T07:14:31.399Z,33.23
2018-03-04T07:17:05.204Z,40.33
2018-03-04T07:19:38.917Z,40.93
2018-03-04T07:22:12.581Z,43.57
2018-03-04T07:24:46.393Z,42.20
2018-03-04T07:27:20.169Z,40.80
2018-03-04T07:29:53.887Z,37.43
2018-03-04T07:32:27.693Z,40.60
2018-03-04T07:35:01.421Z,41.37
2018-03-04T07:37:35.043Z,41.57
2018-03-04T07:40:08.744Z,32.03
2018-03-04T07:42:42.346Z,38.47
2018-03-04T07:45:16.029Z,38.10
2018-03-04T07:47:49.610Z,42.47
2018-03-04T07:50:23.357Z,40.73
2018-03-04T07:52:57.123Z,40.50
2018-03-04T07:55:30.718Z,38.93
2018-03-04T07:58:04.406Z,40.50
2018-03-04T08:00:38.013Z,39.43
2018-03-04T08:03:11.815Z,38.17
2018-03-04T08:05:45.472Z,37.03
2018-03-04T08:08:19.305Z,34.70
2018-03-04T08:10:53.198Z,29.10
2018-03-04T08:13:26.718Z,35.20
2018-03-04T08:16:00.454Z,34.90
2018-03-04T08:18:34.094Z,35.37
2018-03-04T08:21:07.725Z,25.70
2018-03-04T08:23:41.394Z,32.20
2018-03-04T08:26:26.921Z,32.00
2018-03-04T08:29:00.701Z,32.60
2018-03-04T08:31:34.389Z,32.93
2018-03-04T08:34:08.102Z,25.90
2018-03-04T08:36:53.782Z,26.80
2018-03-04T08:39:27.358Z,31.47
2018-03-04T08:42:01.052Z,33.07
2018-03-04T08:44:34.754Z,32.07
2018-03-04T08:47:08.357Z,31.90
2018-03-04T08:49:41.907Z,31.97
2018-03-04T08:52:15.512Z,30.67
2018-03-04T08:54:49.413Z,30.90
2018-03-04T08:57:23.116Z,30.80
2018-03-04T08:59:56.698Z,29.30
2018-03-04T09:02:30.266Z,29.67
2018-03-04T09:05:03.852Z,29.80
2018-03-04T09:07:37.462Z,30.20
2018-03-04T09:10:11.028Z,28.33
2018-03-04T09:12:44.545Z,29.47
2018-03-04T09:15:18.350Z,29.60
2018-03-04T09:17:51.927Z,29.70
2018-03-04T09:20:25.749Z,28.03
2018-03-04T09:22:59.368Z,26.60
2018-03-04T09:25:32.969Z,27.87
2018-03-04T09:28:06.605Z,27.63
2018-03-04T09:30:40.220Z,24.40
2018-03-04T09:33:13.942Z,29.20
2018-03-04T09:35:47.469Z,23.20
2018-03-04T09:38:21.157Z,28.90
2018-03-04T09:40:54.731Z,28.87
2018-03-04T09:43:28.370Z,29.47
2018-03-04T09:46:02.127Z,28.13
2018-03-04T09:48:35.838Z,26.40
2018-03-04T09:51:09.538Z,27.27
2018-03-04T09:53:43.222Z,25.63
2018-03-04T09:56:16.946Z,26.97
2018-03-04T09:58:50.506Z,27.73
2018-03-04T10:01:24.093Z,30.73
2018-03-04T10:03:57.733Z,29.10
2018-03-04T10:06:31.341Z,28.57
2018-03-04T10:09:05.070Z,25.50
2018-03-04T10:11:38.739Z,28.50
2018-03-04T10:14:12.530Z,28.47
2018-03-04T10:16:46.308Z,26.90
2018-03-04T10:19:19.979Z,29.00
2018-03-04T10:21:53.757Z,22.00
2018-03-04T10:24:27.584Z,26.60
2018-03-04T10:27:01.208Z,20.90
2018-03-04T10:29:34.986Z,26.60
2018-03-04T10:32:08.768Z,25.37
2018-03-04T10:34:42.462Z,26.23
2018-03-04T10:37:16.078Z,24.17
2018-03-04T10:39:49.766Z,23.70
2018-03-04T10:42:23.469Z,24.37
2018-03-04T10:44:57.217Z,25.50
2018-03-04T10:47:30.910Z,22.93
2018-03-04T10:50:04.495Z,21.93
2018-03-04T10:52:38.128Z,23.67
2018-03-04T10:55:11.896Z,21.70
2018-03-04T10:57:45.451Z,24.53
2018-03-04T11:00:25.074Z,22.10
2018-03-04T11:02:59.689Z,21.40
2018-03-04T11:05:33.327Z,20.13
2018-03-04T11:08:06.959Z,22.27
2018-03-04T11:10:40.634Z,20.70
2018-03-04T11:13:14.313Z,21.77
2018-03-04T11:15:47.897Z,21.07
2018-03-04T11:18:21.598Z,20.93
2018-03-04T11:20:55.273Z,21.13
2018-03-04T11:23:28.930Z,20.90
2018-03-04T11:26:02.676Z,20.70
2018-03-04T11:28:36.293Z,21.67
2018-03-04T11:31:09.882Z,20.20
2018-03-04T11:33:44.009Z,20.77
2018-03-04T11:36:17.736Z,21.40
2018-03-04T11:38:51.453Z,21.93
2018-03-04T11:41:25.055Z,18.53
2018-03-04T11:43:58.807Z,19.97
2018-03-04T11:46:32.444Z,19.43
2018-03-04T11:49:06.045Z,19.97
2018-03-04T11:51:39.677Z,20.77
2018-03-04T11:54:13.489Z,19.23
2018-03-04T11:56:47.291Z,19.83
2018-03-04T11:59:20.892Z,19.27
2018-03-04T12:01:54.690Z,18.80
2018-03-04T12:04:28.326Z,20.20
2018-03-04T12:07:01.883Z,20.43
2018-03-04T12:09:35.566Z,20.80
2018-03-04T12:12:09.282Z,20.27
2018-03-04T12:14:43.144Z,20.57
2018-03-04T12:17:16.768Z,19.63
2018-03-04T12:19:50.434Z,19.87
2018-03-04T12:22:24.163Z,17.43
2018-03-04T12:24:57.978Z,18.87
2018-03-04T12:27:31.813Z,19.57
2018-03-04T12:30:05.471Z,18.40
2018-03-04T12:32:39.243Z,18.10
2018-03-04T12:35:12.872Z,18.17
2018-03-04T12:37:46.667Z,15.97
2018-03-04T12:40:20.732Z,17.77
2018-03-04T12:42:54.539Z,17.03
2018-03-04T12:45:28.208Z,18.77
2018-03-04T12:48:02.044Z,17.03
2018-03-04T12:50:35.783Z,16.20
2018-03-04T12:53:09.546Z,16.67
2018-03-04T12:55:43.314Z,16.90
2018-03-04T12:58:16.908Z,16.30
2018-03-04T13:00:50.706Z,17.30
2018-03-04T13:03:25.389Z,15.03
2018-03-04T13:08:58.340Z,16.93
2018-03-04T13:11:32.444Z,14.27
2018-03-04T13:14:06.347Z,15.17
2018-03-04T13:16:40.057Z,16.10
2018-03-04T13:19:13.774Z,14.77
2018-03-04T13:21:47.503Z,13.97
2018-03-04T13:24:21.300Z,12.27
2018-03-04T13:26:55.043Z,13.23
2018-03-04T13:29:28.761Z,12.97
2018-03-04T13:32:02.515Z,13.63
2018-03-04T13:34:36.256Z,14.83
2018-03-04T13:37:10.118Z,14.20
2018-03-04T13:39:43.826Z,15.07
2018-03-04T13:42:17.730Z,16.37
2018-03-04T13:44:51.508Z,15.27
2018-03-04T13:47:25.254Z,14.03
2018-03-04T13:49:59.051Z,15.30
2018-03-04T13:52:32.650Z,15.57
2018-03-04T13:55:06.252Z,16.23
2018-03-04T13:57:39.953Z,16.93
2018-03-04T14:00:13.742Z,15.80
2018-03-04T14:02:47.495Z,16.97
2018-03-04T14:05:21.119Z,16.67
2018-03-04T14:07:54.844Z,17.87
2018-03-04T14:10:28.454Z,15.20
2018-03-04T14:13:02.128Z,15.20
2018-03-04T14:15:35.815Z,14.13
2018-03-04T14:18:09.427Z,14.63
2018-03-04T14:20:43.239Z,14.23
2018-03-04T14:23:16.906Z,14.03
2018-03-04T14:25:50.650Z,13.50
2018-03-04T14:28:24.382Z,12.60
2018-03-04T14:30:57.959Z,13.10
2018-03-04T14:33:31.690Z,12.60
2018-03-04T14:36:05.354Z,12.57
2018-03-04T14:38:38.941Z,11.60
2018-03-04T14:41:12.461Z,11.43
2018-03-04T14:43:46.021Z,11.17
2018-03-04T14:46:19.520Z,9.50
2018-03-04T14:48:53.222Z,9.23
2018-03-04T14:51:26.801Z,9.13
2018-03-04T14:54:00.558Z,9.73
2018-03-04T14:56:34.119Z,9.13
2018-03-04T14:59:07.825Z,12.67
2018-03-04T15:01:41.510Z,9.00
2018-03-04T15:04:15.087Z,10.23
2018-03-04T15:06:48.794Z,11.77
2018-03-04T15:09:22.338Z,10.30
2018-03-04T15:11:56.164Z,11.13
2018-03-04T15:14:29.979Z,10.37
2018-03-04T15:17:03.646Z,8.53
2018-03-04T15:19:37.225Z,7.70
2018-03-04T15:22:10.896Z,8.43
2018-03-04T15:24:44.678Z,7.80
2018-03-04T15:27:18.349Z,7.80
2018-03-04T15:29:51.936Z,7.53
2018-03-04T15:32:25.671Z,7.93
2018-03-04T15:34:59.447Z,8.13
2018-03-04T15:37:33.228Z,8.07
2018-03-04T15:40:06.813Z,7.77
2018-03-04T15:42:40.572Z,7.77
2018-03-04T15:45:14.099Z,6.80
2018-03-04T15:47:47.834Z,6.80
2018-03-04T15:50:21.311Z,7.03
2018-03-04T15:52:54.908Z,7.53
2018-03-04T15:55:28.670Z,8.43
2018-03-04T15:58:02.330Z,7.90
2018-03-04T16:00:35.810Z,7.13
2018-03-04T16:03:15.101Z,7.33
2018-03-04T16:05:48.709Z,8.13
2018-03-04T16:08:22.282Z,8.00
2018-03-04T16:10:56.260Z,7.30
2018-03-04T16:13:30.015Z,7.30
2018-03-04T16:16:03.692Z,7.37
2018-03-04T16:18:37.257Z,7.23
2018-03-04T16:21:11.091Z,6.60
2018-03-04T16:23:44.663Z,8.00
2018-03-04T16:26:18.339Z,7.90
2018-03-04T16:28:51.922Z,7.17
2018-03-04T16:31:25.479Z,7.47
2018-03-04T16:33:59.150Z,7.30
2018-03-04T16:36:32.674Z,8.60
2018-03-04T16:39:06.322Z,7.70
2018-03-04T16:41:39.878Z,8.00
2018-03-04T16:44:13.501Z,8.57
2018-03-04T16:46:47.108Z,8.33
2018-03-04T16:49:20.927Z,8.50
2018-03-04T16:51:54.478Z,7.50
2018-03-04T16:54:28.290Z,8.50
2018-03-04T16:57:02.106Z,8.70
2018-03-04T16:59:35.796Z,7.80
2018-03-04T17:02:09.298Z,8.07
2018-03-04T17:04:42.972Z,8.93
2018-03-04T17:07:16.454Z,9.17
2018-03-04T17:09:50.102Z,10.07
2018-03-04T17:12:23.792Z,10.10
2018-03-04T17:14:57.453Z,9.93
2018-03-04T17:17:30.946Z,11.40
2018-03-04T17:20:04.524Z,11.67
2018-03-04T17:22:38.169Z,12.30
2018-03-04T17:25:12.226Z,12.97
2018-03-04T17:27:45.739Z,12.00
2018-03-04T17:30:19.305Z,11.20
2018-03-04T17:32:52.925Z,12.23
2018-03-04T17:35:26.602Z,13.70
2018-03-04T17:38:00.167Z,14.50
2018-03-04T17:40:33.882Z,13.83
2018-03-04T17:43:07.586Z,15.10
2018-03-04T17:45:41.308Z,15.57
2018-03-04T17:48:14.927Z,14.30
2018-03-04T17:50:48.505Z,15.80
2018-03-04T17:53:22.032Z,16.20
2018-03-04T17:55:55.589Z,16.33
2018-03-04T17:58:29.164Z,16.67
2018-03-04T18:01:02.719Z,17.73
2018-03-04T18:03:36.213Z,18.50
2018-03-04T18:06:09.838Z,17.33
2018-03-04T18:08:43.502Z,16.40
2018-03-04T18:11:16.997Z,17.83
2018-03-04T18:13:50.675Z,17.57
2018-03-04T18:16:24.302Z,16.90
2018-03-04T18:18:58.369Z,18.33
2018-03-04T18:21:32.069Z,18.50
2018-03-04T18:24:05.669Z,20.63
2018-03-04T18:26:39.258Z,19.60
2018-03-04T18:29:12.779Z,19.53
2018-03-04T18:31:46.445Z,19.80
2018-03-04T18:34:20.035Z,19.73
2018-03-04T18:36:53.590Z,19.77
2018-03-04T18:39:27.392Z,19.77
2018-03-04T18:42:01.142Z,20.60
2018-03-04T18:44:34.731Z,21.57
2018-03-04T18:47:08.338Z,22.27
2018-03-04T18:49:42.274Z,22.33
2018-03-04T18:52:16.042Z,23.60
2018-03-04T18:54:49.580Z,24.43
2018-03-04T18:57:23.190Z,26.70
2018-03-04T18:59:56.928Z,25.60
2018-03-04T19:02:30.484Z,24.67
2018-03-04T19:05:04.074Z,25.47
2018-03-04T19:07:37.645Z,24.53
2018-03-04T19:10:11.322Z,27.80
2018-03-04T19:12:44.938Z,29.57
2018-03-04T19:15:18.594Z,27.83
2018-03-04T19:17:52.191Z,29.57
2018-03-04T19:20:25.809Z,28.60
2018-03-04T19:22:59.489Z,28.70
2018-03-04T19:25:33.078Z,29.00
2018-03-04T19:28:06.724Z,29.37
2018-03-04T19:30:40.325Z,28.83
2018-03-04T19:33:13.913Z,26.33
2018-03-04T19:35:47.545Z,29.33
2018-03-04T19:38:21.051Z,28.10
2018-03-04T19:40:54.702Z,30.63
2018-03-04T19:43:28.304Z,28.07
2018-03-04T19:46:02.021Z,29.60
2018-03-04T19:48:35.590Z,27.33
2018-03-04T19:51:09.223Z,30.07
2018-03-04T19:53:42.762Z,28.10
2018-03-04T19:56:16.423Z,28.23
2018-03-04T19:58:50.068Z,26.07
2018-03-04T20:01:23.825Z,27.10
2018-03-04T20:03:57.544Z,30.33
2018-03-04T20:06:31.205Z,28.73
2018-03-04T20:09:04.866Z,26.67
2018-03-04T20:11:38.442Z,27.53
2018-03-04T20:14:12.230Z,25.80
2018-03-04T20:16:45.911Z,27.87
2018-03-04T20:19:19.466Z,26.53
2018-03-04T20:21:53.030Z,25.60
2018-03-04T20:24:26.626Z,23.10
2018-03-04T20:27:00.151Z,23.37
2018-03-04T20:29:33.662Z,27.17
2018-03-04T20:32:07.351Z,22.27
2018-03-04T20:34:40.855Z,23.87
2018-03-04T20:37:14.550Z,24.53
2018-03-04T20:39:48.193Z,14.53
2018-03-04T20:42:21.778Z,26.83
2018-03-04T20:44:55.386Z,23.47
2018-03-04T20:47:29.074Z,24.63
2018-03-04T20:50:02.802Z,26.20
2018-03-04T20:52:36.526Z,24.70
2018-03-04T20:55:10.098Z,25.10
2018-03-04T20:57:43.706Z,26.07
2018-03-04T21:00:17.391Z,20.27
2018-03-04T21:02:50.979Z,23.20
2018-03-04T21:05:24.625Z,26.23
2018-03-04T21:07:58.212Z,24.80
2018-03-04T21:10:31.774Z,22.60
2018-03-04T21:13:05.434Z,23.33
2018-03-04T21:15:39.159Z,29.58
2018-03-04T21:18:12.886Z,27.87
2018-03-04T21:20:46.433Z,26.07
2018-03-04T21:23:20.159Z,25.63
2018-03-04T21:25:53.793Z,22.77
2018-03-04T21:28:27.546Z,23.07
2018-03-04T21:31:01.097Z,24.30
2018-03-04T21:33:34.745Z,27.43
2018-03-04T21:36:08.333Z,25.10
2018-03-04T21:38:42.000Z,24.77
2018-03-04T21:41:15.700Z,22.07
2018-03-04T21:43:49.362Z,24.00
2018-03-04T21:46:23.057Z,22.37
2018-03-04T21:48:56.656Z,20.73
2018-03-04T21:51:30.278Z,18.20
2018-03-04T21:54:03.856Z,17.00
2018-03-04T21:56:37.562Z,23.87
2018-03-04T21:59:11.283Z,22.07
2018-03-04T22:01:44.817Z,24.93
2018-03-04T22:04:18.476Z,19.30
2018-03-04T22:06:52.074Z,23.67
2018-03-04T22:09:25.746Z,21.87
2018-03-04T22:11:59.350Z,21.53
2018-03-04T22:14:33.006Z,19.53
2018-03-04T22:17:06.595Z,20.37
2018-03-04T22:19:40.089Z,21.27
2018-03-04T22:22:13.964Z,20.40
2018-03-04T22:24:48.453Z,20.03
2018-03-04T22:27:22.046Z,16.97
2018-03-04T22:29:55.572Z,18.93
2018-03-04T22:32:29.364Z,19.77
2018-03-04T22:35:02.963Z,18.17
2018-03-04T22:37:36.561Z,17.20
2018-03-04T22:40:10.202Z,17.47
2018-03-04T22:42:43.722Z,15.90
2018-03-04T22:45:17.309Z,16.10
2018-03-04T22:47:51.016Z,16.20
2018-03-04T22:50:24.569Z,16.07
2018-03-04T22:52:58.057Z,15.83
2018-03-04T22:55:31.654Z,15.90
2018-03-04T22:58:05.289Z,16.00
2018-03-04T23:00:39.098Z,15.20
2018-03-04T23:03:12.746Z,14.00
2018-03-04T23:05:46.308Z,14.97
2018-03-04T23:08:19.972Z,15.13
2018-03-04T23:10:53.509Z,14.77
2018-03-04T23:13:27.180Z,14.30
2018-03-04T23:16:00.675Z,13.47
2018-03-04T23:18:34.307Z,14.37
2018-03-04T23:21:07.980Z,13.07
2018-03-04T23:23:41.535Z,13.27
2018-03-04T23:26:15.316Z,11.10
2018-03-04T23:28:48.869Z,10.20
2018-03-04T23:31:22.433Z,8.67
2018-03-04T23:33:56.085Z,9.00
2018-03-04T23:36:29.630Z,8.50
2018-03-04T23:39:03.224Z,7.73
2018-03-04T23:41:36.830Z,7.23
2018-03-04T23:44:10.450Z,6.30
2018-03-04T23:46:44.074Z,6.13
2018-03-04T23:49:17.629Z,5.50
2018-03-04T23:51:51.405Z,5.73
2018-03-04T23:54:24.938Z,6.67
2018-03-04T23:56:58.671Z,5.40
2018-03-04T23:59:32.424Z,4.70
